createdAt,value
2022-12-15T00:00:17.392Z,30.27
2022-12-15T00:03:26.846Z,28.83
2022-12-15T00:06:34.158Z,34.00
2022-12-15T00:09:39.562Z,31.10
2022-12-15T00:12:45.037Z,31.67
2022-12-15T00:15:50.191Z,34.67
2022-12-15T00:18:55.126Z,31.70
2022-12-15T00:22:01.834Z,30.67
2022-12-15T00:25:07.173Z,35.63
2022-12-15T00:28:14.926Z,29.92
2022-12-15T00:31:20.046Z,32.60
2022-12-15T00:34:26.033Z,33.25
2022-12-15T00:37:32.705Z,29.42
2022-12-15T00:40:20.449Z,29.52
2022-12-15T00:43:12.041Z,32.17
2022-12-15T00:46:17.951Z,30.17
2022-12-15T00:49:25.877Z,33.80
2022-12-15T00:52:33.371Z,28.15
2022-12-15T00:55:39.037Z,33.97
2022-12-15T00:58:44.074Z,35.20
2022-12-15T01:01:49.733Z,34.28
2022-12-15T01:04:55.358Z,31.20
2022-12-15T01:08:01.585Z,30.30
2022-12-15T01:11:06.900Z,29.60
2022-12-15T01:14:12.172Z,33.00
2022-12-15T01:17:17.206Z,33.65
2022-12-15T01:20:18.115Z,28.23
2022-12-15T01:23:07.112Z,27.90
2022-12-15T01:25:55.857Z,29.67
2022-12-15T01:28:43.620Z,30.98
2022-12-15T01:31:31.680Z,29.40
2022-12-15T01:34:22.602Z,31.05
2022-12-15T01:37:10.658Z,26.65
2022-12-15T01:40:17.782Z,27.10
2022-12-15T01:43:10.766Z,32.50
2022-12-15T01:46:05.565Z,35.88
2022-12-15T01:49:00.915Z,32.53
2022-12-15T01:51:52.479Z,30.98
2022-12-15T01:54:46.240Z,28.10
2022-12-15T01:57:38.825Z,34.20
2022-12-15T02:00:28.162Z,31.23
2022-12-15T02:03:17.148Z,32.15
2022-12-15T02:06:05.033Z,33.55
2022-12-15T02:08:56.455Z,34.22
2022-12-15T02:11:56.207Z,36.78
2022-12-15T02:15:01.104Z,32.53
2022-12-15T02:17:58.515Z,36.17
2022-12-15T02:20:59.999Z,32.58
2022-12-15T02:24:26.360Z,32.08
2022-12-15T02:27:35.363Z,34.67
2022-12-15T02:30:39.277Z,35.25
2022-12-15T02:33:31.228Z,32.03
2022-12-15T02:36:26.837Z,34.97
2022-12-15T02:39:15.830Z,33.85
2022-12-15T02:42:04.026Z,31.98
2022-12-15T02:44:55.930Z,30.92
2022-12-15T02:47:53.420Z,34.47
2022-12-15T02:50:58.681Z,35.28
2022-12-15T02:54:07.301Z,31.05
2022-12-15T02:57:06.003Z,31.60
2022-12-15T02:59:58.714Z,33.97
2022-12-15T03:02:52.129Z,34.53
2022-12-15T03:05:40.312Z,39.10
2022-12-15T03:08:28.364Z,33.33
2022-12-15T03:11:16.673Z,31.13
2022-12-15T03:14:04.425Z,36.80
2022-12-15T03:16:52.573Z,35.00
2022-12-15T03:19:41.660Z,35.38
2022-12-15T03:22:29.507Z,37.28
2022-12-15T03:25:17.248Z,37.13
2022-12-15T03:28:05.108Z,37.20
2022-12-15T03:30:53.311Z,32.90
2022-12-15T03:33:41.433Z,36.30
2022-12-15T03:36:31.091Z,36.05
2022-12-15T03:39:19.079Z,31.83
2022-12-15T03:42:07.540Z,34.92
2022-12-15T03:44:55.544Z,34.45
2022-12-15T03:47:44.293Z,36.40
2022-12-15T03:50:32.037Z,33.97
2022-12-15T03:53:21.698Z,35.13
2022-12-15T03:56:10.065Z,35.38
2022-12-15T03:58:58.152Z,34.00
2022-12-15T04:01:49.270Z,35.08
2022-12-15T04:04:37.612Z,44.17
2022-12-15T04:07:25.796Z,33.17
2022-12-15T04:10:15.895Z,35.47
2022-12-15T04:13:05.833Z,32.03
2022-12-15T04:15:53.642Z,35.20
2022-12-15T04:18:41.696Z,32.92
2022-12-15T04:21:28.664Z,36.10
2022-12-15T04:24:34.208Z,34.45
2022-12-15T04:27:41.054Z,33.90
2022-12-15T04:30:46.838Z,32.47
2022-12-15T04:33:52.420Z,33.60
2022-12-15T04:36:59.182Z,31.70
2022-12-15T04:40:09.035Z,37.05
2022-12-15T04:43:15.604Z,36.03
2022-12-15T04:46:20.907Z,33.83
2022-12-15T04:49:26.470Z,35.58
2022-12-15T04:52:31.958Z,34.45
2022-12-15T04:55:37.454Z,31.27
2022-12-15T04:58:44.203Z,31.33
2022-12-15T05:01:49.481Z,35.70
2022-12-15T05:04:55.411Z,31.42
2022-12-15T05:08:00.723Z,38.08
2022-12-15T05:11:05.756Z,31.98
2022-12-15T05:14:12.690Z,32.40
2022-12-15T05:17:17.957Z,32.50
2022-12-15T05:20:24.022Z,35.50
2022-12-15T05:23:29.825Z,34.92
2022-12-15T05:26:35.167Z,32.00
2022-12-15T05:29:41.725Z,35.67
2022-12-15T05:32:32.288Z,34.20
2022-12-15T05:35:20.194Z,35.28
2022-12-15T05:38:08.513Z,31.27
2022-12-15T05:40:59.398Z,32.65
2022-12-15T05:43:49.423Z,35.42
2022-12-15T05:46:39.272Z,35.90
2022-12-15T05:49:26.952Z,37.97
2022-12-15T05:52:14.960Z,29.85
2022-12-15T05:55:03.029Z,33.25
2022-12-15T05:57:53.474Z,37.03
2022-12-15T06:00:41.299Z,31.50
2022-12-15T06:03:31.756Z,38.28
2022-12-15T06:06:20.411Z,34.05
2022-12-15T06:09:08.476Z,37.60
2022-12-15T06:11:56.656Z,34.78
2022-12-15T06:14:44.370Z,34.80
2022-12-15T06:17:34.931Z,34.03
2022-12-15T06:20:26.065Z,36.28
2022-12-15T06:23:15.358Z,41.38
2022-12-15T06:26:11.753Z,39.58
2022-12-15T06:29:02.625Z,35.03
2022-12-15T06:31:50.576Z,38.85
2022-12-15T06:34:38.698Z,35.95
2022-12-15T06:37:30.125Z,38.50
2022-12-15T06:40:17.820Z,37.63
2022-12-15T06:43:07.848Z,35.42
2022-12-15T06:45:55.767Z,33.50
2022-12-15T06:48:44.964Z,32.17
2022-12-15T06:51:33.373Z,36.05
2022-12-15T06:54:22.805Z,32.33
2022-12-15T06:57:10.792Z,34.15
2022-12-15T07:00:01.472Z,33.42
2022-12-15T07:02:50.134Z,32.58
2022-12-15T07:05:38.415Z,33.20
2022-12-15T07:08:30.915Z,34.70
2022-12-15T07:11:23.626Z,34.38
2022-12-15T07:14:13.496Z,36.83
2022-12-15T07:17:01.264Z,36.40
2022-12-15T07:19:49.189Z,36.72
2022-12-15T07:22:37.323Z,33.67
2022-12-15T07:25:25.465Z,41.08
2022-12-15T07:28:14.805Z,32.03
2022-12-15T07:31:08.070Z,34.30
2022-12-15T07:33:56.054Z,33.88
2022-12-15T07:36:49.995Z,34.00
2022-12-15T07:39:43.693Z,36.95
2022-12-15T07:42:33.486Z,36.60
2022-12-15T07:45:22.918Z,33.33
2022-12-15T07:48:11.048Z,34.25
2022-12-15T07:51:07.425Z,33.97
2022-12-15T07:53:57.955Z,36.50
2022-12-15T07:56:50.479Z,31.50
2022-12-15T07:59:38.737Z,35.67
2022-12-15T08:02:28.192Z,37.53
2022-12-15T08:05:28.100Z,36.08
2022-12-15T08:08:15.800Z,38.65
2022-12-15T08:11:09.133Z,35.17
2022-12-15T08:14:06.970Z,39.75
2022-12-15T08:16:56.325Z,37.40
2022-12-15T08:19:45.850Z,36.65
2022-12-15T08:22:33.584Z,42.08
2022-12-15T08:25:21.797Z,37.13
2022-12-15T08:28:09.707Z,35.97
2022-12-15T08:31:03.025Z,37.78
2022-12-15T08:36:41.121Z,39.63
2022-12-15T08:39:29.309Z,37.35
2022-12-15T08:42:17.218Z,43.15
2022-12-15T08:45:06.387Z,45.70
2022-12-15T08:47:54.835Z,44.05
2022-12-15T08:50:46.275Z,44.35
2022-12-15T08:53:36.175Z,44.28
2022-12-15T08:56:25.540Z,48.92
2022-12-15T08:59:13.861Z,49.60
2022-12-15T09:02:02.081Z,49.22
2022-12-15T09:04:50.976Z,52.13
2022-12-15T09:07:40.350Z,53.95
2022-12-15T09:10:29.842Z,48.72
2022-12-15T09:13:17.623Z,51.67
2022-12-15T09:16:10.242Z,54.05
2022-12-15T09:19:00.777Z,52.78
2022-12-15T09:21:49.582Z,51.50
2022-12-15T09:24:37.384Z,52.70
2022-12-15T09:27:26.501Z,56.35
2022-12-15T09:30:14.961Z,52.42
2022-12-15T09:33:02.831Z,61.72
2022-12-15T09:35:54.492Z,49.55
2022-12-15T09:38:44.143Z,54.78
2022-12-15T09:41:34.003Z,54.13
2022-12-15T09:44:25.579Z,57.20
2022-12-15T09:47:26.433Z,52.85
2022-12-15T09:50:16.505Z,50.28
2022-12-15T09:53:23.146Z,53.22
2022-12-15T09:56:22.011Z,54.60
2022-12-15T09:59:26.848Z,50.95
2022-12-15T10:02:45.075Z,49.28
2022-12-15T10:06:07.449Z,51.22
2022-12-15T10:08:59.569Z,56.65
2022-12-15T10:11:53.010Z,58.90
2022-12-15T10:14:46.852Z,57.97
2022-12-15T10:17:50.458Z,59.38
2022-12-15T10:20:38.858Z,56.63
2022-12-15T10:23:27.362Z,50.72
2022-12-15T10:26:21.611Z,55.80
2022-12-15T10:29:23.565Z,50.40
2022-12-15T10:32:19.238Z,51.42
2022-12-15T10:35:15.912Z,47.67
2022-12-15T10:38:05.643Z,47.75
2022-12-15T10:40:56.434Z,47.45
2022-12-15T10:43:46.942Z,46.40
2022-12-15T10:46:35.179Z,43.05
2022-12-15T10:49:25.703Z,43.78
2022-12-15T10:52:34.877Z,48.97
2022-12-15T10:55:38.425Z,41.80
2022-12-15T10:58:26.361Z,41.72
2022-12-15T11:01:19.477Z,45.42
2022-12-15T11:04:27.052Z,40.40
2022-12-15T11:07:15.972Z,40.08
2022-12-15T11:10:19.944Z,44.58
2022-12-15T11:13:13.937Z,35.83
2022-12-15T11:16:15.766Z,43.22
2022-12-15T11:19:09.281Z,37.28
2022-12-15T11:22:02.320Z,41.55
2022-12-15T11:27:47.994Z,40.42
2022-12-15T11:30:43.966Z,40.80
2022-12-15T11:33:32.260Z,40.90
2022-12-15T11:36:31.318Z,43.33
2022-12-15T11:39:31.573Z,39.72
2022-12-15T11:42:30.444Z,40.75
2022-12-15T11:45:25.718Z,41.20
2022-12-15T11:48:17.328Z,44.28
2022-12-15T11:51:12.295Z,44.58
2022-12-15T11:54:14.701Z,43.60
2022-12-15T11:57:21.078Z,42.70
2022-12-15T12:00:20.516Z,43.83
2022-12-15T12:03:24.777Z,42.88
2022-12-15T12:06:17.900Z,42.78
2022-12-15T12:12:14.160Z,40.65
2022-12-15T12:15:20.709Z,42.30
2022-12-15T12:18:21.029Z,41.30
2022-12-15T12:21:13.390Z,45.25
2022-12-15T12:24:05.365Z,46.00
2022-12-15T12:27:00.172Z,40.63
2022-12-15T12:29:52.384Z,40.00
2022-12-15T12:32:48.372Z,42.33
2022-12-15T12:35:46.581Z,43.88
2022-12-15T12:38:42.141Z,46.05
2022-12-15T12:41:40.429Z,43.55
2022-12-15T12:44:33.442Z,42.90
2022-12-15T12:47:26.051Z,46.30
2022-12-15T12:50:19.966Z,47.10
2022-12-15T12:53:28.074Z,44.03
2022-12-15T12:56:33.099Z,42.38
2022-12-15T12:59:40.304Z,43.58
2022-12-15T13:02:54.837Z,44.25
2022-12-15T13:05:44.316Z,36.30
2022-12-15T13:08:51.574Z,44.53
2022-12-15T13:12:20.801Z,43.40
2022-12-15T13:15:21.477Z,40.40
2022-12-15T13:18:19.344Z,45.25
2022-12-15T13:21:38.128Z,36.22
2022-12-15T13:24:45.119Z,42.67
2022-12-15T13:27:39.117Z,40.65
2022-12-15T13:30:27.481Z,44.42
2022-12-15T13:33:20.417Z,39.85
2022-12-15T13:36:09.450Z,38.63
2022-12-15T13:38:57.829Z,40.60
2022-12-15T13:42:34.254Z,38.95
2022-12-15T13:45:50.281Z,44.67
2022-12-15T13:48:44.497Z,40.95
2022-12-15T13:51:39.200Z,41.28
2022-12-15T13:54:32.784Z,40.95
2022-12-15T13:57:24.056Z,42.15
2022-12-15T14:00:22.809Z,41.72
2022-12-15T14:03:13.315Z,42.90
2022-12-15T14:06:02.475Z,47.95
2022-12-15T14:08:51.455Z,40.80
2022-12-15T14:11:57.859Z,43.47
2022-12-15T14:14:50.371Z,43.13
2022-12-15T14:17:38.464Z,31.95
2022-12-15T14:20:28.538Z,45.05
2022-12-15T14:23:20.750Z,42.03
2022-12-15T14:26:12.181Z,38.63
2022-12-15T14:29:03.551Z,44.17
2022-12-15T14:31:55.899Z,40.75
2022-12-15T14:34:45.247Z,43.17
2022-12-15T14:37:39.226Z,44.72
2022-12-15T14:40:29.265Z,44.83
2022-12-15T14:43:23.859Z,40.90
2022-12-15T14:46:17.796Z,44.00
2022-12-15T14:49:19.513Z,43.20
2022-12-15T14:52:13.722Z,42.35
2022-12-15T14:55:04.060Z,47.38
2022-12-15T14:57:54.039Z,41.75
2022-12-15T15:00:52.834Z,43.55
2022-12-15T15:03:42.413Z,40.72
2022-12-15T15:06:36.016Z,42.25
2022-12-15T15:09:27.043Z,44.45
2022-12-15T15:12:18.567Z,48.30
2022-12-15T15:15:09.897Z,47.97
2022-12-15T15:18:00.197Z,45.78
2022-12-15T15:20:57.901Z,46.53
2022-12-15T15:24:04.443Z,41.42
2022-12-15T15:27:42.834Z,43.95
2022-12-15T15:30:31.232Z,43.85
2022-12-15T15:33:23.241Z,45.67
2022-12-15T15:36:13.332Z,43.60
2022-12-15T15:39:15.304Z,48.15
2022-12-15T15:42:11.632Z,44.85
2022-12-15T15:45:04.337Z,46.25
2022-12-15T15:48:25.117Z,48.03
2022-12-15T15:51:14.101Z,41.97
2022-12-15T15:54:06.648Z,47.97
2022-12-15T15:56:54.546Z,45.88
2022-12-15T15:59:44.716Z,44.08
2022-12-15T16:02:32.855Z,47.00
2022-12-15T16:05:22.193Z,48.95
2022-12-15T16:08:15.532Z,49.92
2022-12-15T16:11:05.161Z,49.60
2022-12-15T16:13:53.359Z,50.72
2022-12-15T16:16:41.938Z,52.05
2022-12-15T16:19:33.754Z,54.92
2022-12-15T16:22:27.700Z,47.92
2022-12-15T16:25:18.729Z,55.30
2022-12-15T16:28:14.278Z,49.20
2022-12-15T16:31:02.376Z,52.03
2022-12-15T16:33:50.274Z,48.17
2022-12-15T16:36:39.134Z,50.90
2022-12-15T16:39:29.022Z,60.08
2022-12-15T16:42:17.738Z,57.65
2022-12-15T16:45:16.451Z,55.63
2022-12-15T16:48:04.583Z,53.47
2022-12-15T16:50:55.113Z,53.65
2022-12-15T16:53:45.036Z,55.10
2022-12-15T16:56:33.525Z,59.50
2022-12-15T16:59:38.918Z,59.83
2022-12-15T17:02:30.337Z,56.60
2022-12-15T17:05:19.380Z,53.72
2022-12-15T17:08:09.682Z,52.47
2022-12-15T17:10:57.724Z,49.17
2022-12-15T17:13:50.958Z,58.60
2022-12-15T17:16:39.111Z,52.75
2022-12-15T17:19:28.900Z,53.97
2022-12-15T17:22:17.865Z,56.60
2022-12-15T17:25:07.230Z,57.08
2022-12-15T17:27:57.311Z,53.47
2022-12-15T17:30:45.053Z,58.13
2022-12-15T17:33:39.222Z,54.67
2022-12-15T17:36:29.685Z,56.22
2022-12-15T17:39:20.609Z,54.13
2022-12-15T17:42:17.554Z,59.83
2022-12-15T17:45:15.060Z,55.63
2022-12-15T17:48:03.295Z,54.35
2022-12-15T17:50:52.601Z,61.13
2022-12-15T17:53:51.381Z,60.45
2022-12-15T17:56:40.979Z,57.30
2022-12-15T17:59:28.811Z,50.97
2022-12-15T18:02:17.271Z,52.35
2022-12-15T18:05:06.088Z,55.92
2022-12-15T18:07:56.756Z,58.72
2022-12-15T18:10:47.397Z,56.10
2022-12-15T18:13:36.000Z,59.90
2022-12-15T18:16:24.426Z,54.30
2022-12-15T18:19:12.937Z,59.60
2022-12-15T18:22:01.199Z,57.85
2022-12-15T18:24:49.505Z,64.10
2022-12-15T18:27:39.683Z,57.95
2022-12-15T18:30:32.950Z,55.63
2022-12-15T18:36:11.511Z,50.78
2022-12-15T18:38:59.141Z,53.92
2022-12-15T18:41:48.132Z,55.28
2022-12-15T18:44:37.639Z,54.80
2022-12-15T18:47:26.380Z,58.90
2022-12-15T18:50:19.666Z,52.83
2022-12-15T18:53:13.503Z,52.67
2022-12-15T18:56:03.116Z,50.72
2022-12-15T18:58:51.378Z,49.67
2022-12-15T19:01:45.581Z,54.17
2022-12-15T19:04:33.612Z,48.90
2022-12-15T19:07:21.796Z,50.50
2022-12-15T19:10:49.356Z,49.63
2022-12-15T19:13:39.544Z,47.08
2022-12-15T19:16:55.602Z,50.58
2022-12-15T19:20:02.390Z,51.13
2022-12-15T19:22:51.155Z,50.85
2022-12-15T19:25:40.127Z,55.38
2022-12-15T19:28:28.078Z,48.22
2022-12-15T19:31:16.279Z,49.70
2022-12-15T19:34:04.382Z,51.20
2022-12-15T19:36:53.873Z,48.05
2022-12-15T19:39:41.744Z,44.60
2022-12-15T19:42:32.420Z,49.80
2022-12-15T19:45:22.036Z,54.05
2022-12-15T19:48:12.353Z,48.58
2022-12-15T19:51:00.373Z,49.55
2022-12-15T19:53:50.807Z,52.25
2022-12-15T19:56:38.912Z,45.22
2022-12-15T19:59:28.428Z,45.10
2022-12-15T20:02:26.627Z,46.83
2022-12-15T20:05:14.850Z,44.53
2022-12-15T20:08:05.600Z,44.67
2022-12-15T20:14:29.172Z,51.42
2022-12-15T20:17:18.724Z,47.10
2022-12-15T20:20:07.943Z,46.65
2022-12-15T20:23:00.965Z,47.03
2022-12-15T20:25:53.319Z,56.22
2022-12-15T20:28:45.130Z,46.63
2022-12-15T20:31:33.251Z,56.05
2022-12-15T20:34:21.975Z,48.65
2022-12-15T20:37:20.986Z,48.72
2022-12-15T20:40:20.511Z,45.50
2022-12-15T20:43:14.707Z,44.88
2022-12-15T20:46:07.345Z,46.10
2022-12-15T20:48:56.445Z,48.92
2022-12-15T20:51:45.309Z,48.35
2022-12-15T20:54:33.474Z,48.50
2022-12-15T20:57:21.943Z,49.72
2022-12-15T21:00:12.183Z,45.00
2022-12-15T21:03:10.286Z,45.08
2022-12-15T21:06:00.573Z,44.50
2022-12-15T21:08:49.415Z,46.30
2022-12-15T21:11:37.530Z,40.13
2022-12-15T21:14:26.136Z,37.47
2022-12-15T21:17:16.830Z,45.35
2022-12-15T21:20:07.046Z,41.25
2022-12-15T21:22:55.291Z,36.88
2022-12-15T21:25:43.409Z,41.33
2022-12-15T21:28:31.948Z,46.72
2022-12-15T21:31:20.406Z,39.80
2022-12-15T21:34:09.535Z,37.80
2022-12-15T21:36:59.373Z,42.80
2022-12-15T21:39:47.623Z,40.55
2022-12-15T21:42:37.330Z,40.33
2022-12-15T21:45:26.378Z,37.15
2022-12-15T21:48:32.183Z,36.42
2022-12-15T21:51:20.374Z,40.70
2022-12-15T21:54:18.141Z,35.15
2022-12-15T21:57:10.358Z,36.58
2022-12-15T21:59:58.465Z,36.53
2022-12-15T22:02:47.174Z,31.48
2022-12-15T22:05:35.484Z,34.58
2022-12-15T22:08:23.614Z,31.88
2022-12-15T22:11:22.224Z,30.48
2022-12-15T22:14:20.635Z,36.97
2022-12-15T22:17:17.101Z,30.33
2022-12-15T22:20:14.279Z,34.10
2022-12-15T22:23:02.250Z,37.30
2022-12-15T22:25:55.442Z,27.88
2022-12-15T22:28:45.164Z,29.08
2022-12-15T22:31:33.028Z,29.50
2022-12-15T22:34:23.038Z,33.67
2022-12-15T22:37:10.847Z,29.67
2022-12-15T22:39:58.917Z,27.90
2022-12-15T22:42:50.834Z,27.02
2022-12-15T22:45:42.849Z,31.58
2022-12-15T22:48:36.862Z,27.02
2022-12-15T22:51:25.203Z,29.88
2022-12-15T22:54:29.340Z,33.92
2022-12-15T22:57:21.986Z,32.45
2022-12-15T23:00:12.930Z,31.73
2022-12-15T23:03:02.575Z,30.92
2022-12-15T23:05:53.027Z,27.63
2022-12-15T23:08:41.489Z,29.10
2022-12-15T23:11:38.430Z,35.40
2022-12-15T23:14:40.298Z,29.15
2022-12-15T23:17:28.272Z,28.73
2022-12-15T23:20:17.595Z,27.00
2022-12-15T23:23:05.694Z,28.48
2022-12-15T23:25:54.832Z,26.77
2022-12-15T23:28:43.352Z,29.30
2022-12-15T23:31:31.958Z,28.85
2022-12-15T23:34:20.500Z,33.50
2022-12-15T23:37:09.986Z,27.30
2022-12-15T23:39:57.968Z,26.10
2022-12-15T23:42:45.931Z,26.13
2022-12-15T23:45:33.978Z,29.25
2022-12-15T23:48:22.352Z,27.25
2022-12-15T23:51:12.635Z,25.73
2022-12-15T23:54:02.099Z,24.90
2022-12-15T23:56:49.911Z,27.60
2022-12-15T23:59:39.669Z,28.45
